sensor_id;sensor_type;location;lat;lon;timestamp;P1;durP1;ratioP1;P2;durP2;ratioP2
57441;SDS011;43284;47.042;15.498;2022-09-06T00:00:58;10.45;;;7.53;;
57441;SDS011;43284;47.042;15.498;2022-09-06T00:03:25;12.27;;;7.75;;
57441;SDS011;43284;47.042;15.498;2022-09-06T00:05:53;11.30;;;8.20;;
57441;SDS011;43284;47.042;15.498;2022-09-06T00:08:20;11.07;;;7.55;;
57441;SDS011;43284;47.042;15.498;2022-09-06T00:10:55;10.05;;;7.28;;
57441;SDS011;43284;47.042;15.498;2022-09-06T00:13:23;12.10;;;8.27;;
57441;SDS011;43284;47.042;15.498;2022-09-06T00:15:51;11.18;;;7.82;;
57441;SDS011;43284;47.042;15.498;2022-09-06T00:18:18;12.00;;;8.43;;
57441;SDS011;43284;47.042;15.498;2022-09-06T00:20:45;13.20;;;8.35;;
57441;SDS011;43284;47.042;15.498;2022-09-06T00:23:13;11.60;;;8.07;;
57441;SDS011;43284;47.042;15.498;2022-09-06T00:25:41;12.07;;;8.57;;
57441;SDS011;43284;47.042;15.498;2022-09-06T00:28:08;12.23;;;8.38;;
57441;SDS011;43284;47.042;15.498;2022-09-06T00:30:35;10.77;;;7.97;;
57441;SDS011;43284;47.042;15.498;2022-09-06T00:33:03;11.85;;;8.85;;
57441;SDS011;43284;47.042;15.498;2022-09-06T00:35:30;9.68;;;7.65;;
57441;SDS011;43284;47.042;15.498;2022-09-06T00:37:58;11.75;;;8.02;;
57441;SDS011;43284;47.042;15.498;2022-09-06T00:40:27;11.57;;;8.13;;
57441;SDS011;43284;47.042;15.498;2022-09-06T00:42:55;12.18;;;8.68;;
57441;SDS011;43284;47.042;15.498;2022-09-06T00:45:23;14.50;;;8.13;;
57441;SDS011;43284;47.042;15.498;2022-09-06T00:47:53;10.57;;;7.70;;
57441;SDS011;43284;47.042;15.498;2022-09-06T00:50:21;10.52;;;7.78;;
57441;SDS011;43284;47.042;15.498;2022-09-06T00:52:49;11.18;;;7.35;;
57441;SDS011;43284;47.042;15.498;2022-09-06T00:55:19;11.93;;;8.02;;
57441;SDS011;43284;47.042;15.498;2022-09-06T00:57:47;13.02;;;8.07;;
57441;SDS011;43284;47.042;15.498;2022-09-06T01:00:17;10.90;;;7.78;;
57441;SDS011;43284;47.042;15.498;2022-09-06T01:02:46;9.93;;;7.38;;
57441;SDS011;43284;47.042;15.498;2022-09-06T01:05:14;9.52;;;7.30;;
57441;SDS011;43284;47.042;15.498;2022-09-06T01:08:01;9.23;;;6.95;;
57441;SDS011;43284;47.042;15.498;2022-09-06T01:10:56;11.90;;;7.85;;
57441;SDS011;43284;47.042;15.498;2022-09-06T01:16:31;14.27;;;8.38;;
57441;SDS011;43284;47.042;15.498;2022-09-06T01:22:06;10.18;;;7.47;;
57441;SDS011;43284;47.042;15.498;2022-09-06T01:30:52;12.52;;;7.88;;
57441;SDS011;43284;47.042;15.498;2022-09-06T01:36:51;13.43;;;8.02;;
57441;SDS011;43284;47.042;15.498;2022-09-06T01:41:55;11.02;;;7.95;;
57441;SDS011;43284;47.042;15.498;2022-09-06T01:44:27;11.85;;;8.25;;
57441;SDS011;43284;47.042;15.498;2022-09-06T01:47:13;9.88;;;7.25;;
57441;SDS011;43284;47.042;15.498;2022-09-06T01:55:48;10.77;;;7.25;;
57441;SDS011;43284;47.042;15.498;2022-09-06T02:04:53;10.93;;;7.07;;
57441;SDS011;43284;47.042;15.498;2022-09-06T02:07:32;10.63;;;7.35;;
57441;SDS011;43284;47.042;15.498;2022-09-06T02:12:36;11.35;;;7.68;;
57441;SDS011;43284;47.042;15.498;2022-09-06T02:15:12;10.93;;;7.05;;
57441;SDS011;43284;47.042;15.498;2022-09-06T02:17:57;10.98;;;7.43;;
57441;SDS011;43284;47.042;15.498;2022-09-06T02:20:37;10.55;;;7.07;;
57441;SDS011;43284;47.042;15.498;2022-09-06T02:23:10;9.63;;;6.55;;
57441;SDS011;43284;47.042;15.498;2022-09-06T02:25:46;10.15;;;7.20;;
57441;SDS011;43284;47.042;15.498;2022-09-06T02:28:19;11.38;;;7.47;;
57441;SDS011;43284;47.042;15.498;2022-09-06T02:30:52;13.15;;;8.05;;
57441;SDS011;43284;47.042;15.498;2022-09-06T02:33:29;15.63;;;8.27;;
57441;SDS011;43284;47.042;15.498;2022-09-06T02:36:01;12.07;;;8.07;;
57441;SDS011;43284;47.042;15.498;2022-09-06T02:38:34;10.52;;;7.32;;
57441;SDS011;43284;47.042;15.498;2022-09-06T02:41:06;8.85;;;6.78;;
57441;SDS011;43284;47.042;15.498;2022-09-06T02:43:34;10.43;;;6.82;;
57441;SDS011;43284;47.042;15.498;2022-09-06T02:46:01;11.25;;;7.30;;
57441;SDS011;43284;47.042;15.498;2022-09-06T02:48:28;10.10;;;7.15;;
57441;SDS011;43284;47.042;15.498;2022-09-06T02:50:56;9.25;;;6.47;;
57441;SDS011;43284;47.042;15.498;2022-09-06T02:53:27;9.48;;;6.50;;
57441;SDS011;43284;47.042;15.498;2022-09-06T02:55:54;9.40;;;7.20;;
57441;SDS011;43284;47.042;15.498;2022-09-06T02:58:22;14.10;;;7.65;;
57441;SDS011;43284;47.042;15.498;2022-09-06T03:00:50;11.02;;;7.85;;
57441;SDS011;43284;47.042;15.498;2022-09-06T03:03:24;11.52;;;6.88;;
57441;SDS011;43284;47.042;15.498;2022-09-06T03:05:52;12.25;;;7.57;;
57441;SDS011;43284;47.042;15.498;2022-09-06T03:08:21;10.90;;;7.35;;
57441;SDS011;43284;47.042;15.498;2022-09-06T03:10:51;10.88;;;6.97;;
57441;SDS011;43284;47.042;15.498;2022-09-06T03:13:21;13.90;;;7.85;;
57441;SDS011;43284;47.042;15.498;2022-09-06T03:15:50;10.13;;;7.30;;
57441;SDS011;43284;47.042;15.498;2022-09-06T03:18:23;13.07;;;7.82;;
57441;SDS011;43284;47.042;15.498;2022-09-06T03:20:52;9.60;;;6.95;;
57441;SDS011;43284;47.042;15.498;2022-09-06T03:23:21;11.02;;;7.60;;
57441;SDS011;43284;47.042;15.498;2022-09-06T03:25:50;9.50;;;7.15;;
57441;SDS011;43284;47.042;15.498;2022-09-06T03:28:17;10.32;;;6.85;;
57441;SDS011;43284;47.042;15.498;2022-09-06T03:30:46;11.52;;;7.57;;
57441;SDS011;43284;47.042;15.498;2022-09-06T03:33:14;10.88;;;7.45;;
57441;SDS011;43284;47.042;15.498;2022-09-06T03:35:47;12.18;;;8.27;;
57441;SDS011;43284;47.042;15.498;2022-09-06T03:38:20;9.98;;;6.68;;
57441;SDS011;43284;47.042;15.498;2022-09-06T03:40:48;10.63;;;6.55;;
57441;SDS011;43284;47.042;15.498;2022-09-06T03:43:16;12.75;;;7.88;;
57441;SDS011;43284;47.042;15.498;2022-09-06T03:45:45;9.20;;;6.95;;
57441;SDS011;43284;47.042;15.498;2022-09-06T03:48:14;11.07;;;7.50;;
57441;SDS011;43284;47.042;15.498;2022-09-06T03:50:46;10.07;;;6.38;;
57441;SDS011;43284;47.042;15.498;2022-09-06T03:53:15;11.10;;;7.60;;
57441;SDS011;43284;47.042;15.498;2022-09-06T03:55:47;9.95;;;6.55;;
57441;SDS011;43284;47.042;15.498;2022-09-06T03:58:17;10.90;;;7.38;;
57441;SDS011;43284;47.042;15.498;2022-09-06T04:00:46;11.15;;;7.25;;
57441;SDS011;43284;47.042;15.498;2022-09-06T04:03:14;9.60;;;6.35;;
57441;SDS011;43284;47.042;15.498;2022-09-06T04:05:44;9.57;;;6.78;;
57441;SDS011;43284;47.042;15.498;2022-09-06T04:08:12;10.57;;;7.43;;
57441;SDS011;43284;47.042;15.498;2022-09-06T04:10:39;8.95;;;5.95;;
57441;SDS011;43284;47.042;15.498;2022-09-06T04:13:07;10.75;;;7.15;;
57441;SDS011;43284;47.042;15.498;2022-09-06T04:15:34;9.48;;;6.28;;
57441;SDS011;43284;47.042;15.498;2022-09-06T04:18:02;10.07;;;7.25;;
57441;SDS011;43284;47.042;15.498;2022-09-06T04:20:29;8.27;;;6.50;;
57441;SDS011;43284;47.042;15.498;2022-09-06T04:22:57;10.63;;;6.88;;
57441;SDS011;43284;47.042;15.498;2022-09-06T04:25:24;9.20;;;6.10;;
57441;SDS011;43284;47.042;15.498;2022-09-06T04:27:51;10.48;;;6.85;;
57441;SDS011;43284;47.042;15.498;2022-09-06T04:30:19;8.80;;;6.40;;
57441;SDS011;43284;47.042;15.498;2022-09-06T04:32:46;10.93;;;6.55;;
57441;SDS011;43284;47.042;15.498;2022-09-06T04:35:13;9.23;;;6.35;;
57441;SDS011;43284;47.042;15.498;2022-09-06T04:37:41;8.82;;;6.13;;
57441;SDS011;43284;47.042;15.498;2022-09-06T04:40:08;9.02;;;6.20;;
57441;SDS011;43284;47.042;15.498;2022-09-06T04:42:36;12.10;;;6.75;;
57441;SDS011;43284;47.042;15.498;2022-09-06T04:45:03;10.23;;;7.60;;
57441;SDS011;43284;47.042;15.498;2022-09-06T04:47:30;11.13;;;7.18;;
57441;SDS011;43284;47.042;15.498;2022-09-06T04:49:57;10.15;;;6.70;;
57441;SDS011;43284;47.042;15.498;2022-09-06T04:52:25;12.05;;;7.00;;
57441;SDS011;43284;47.042;15.498;2022-09-06T04:54:52;10.00;;;6.47;;
57441;SDS011;43284;47.042;15.498;2022-09-06T04:57:19;9.70;;;6.75;;
57441;SDS011;43284;47.042;15.498;2022-09-06T04:59:47;9.43;;;6.88;;
57441;SDS011;43284;47.042;15.498;2022-09-06T05:02:14;10.80;;;6.63;;
57441;SDS011;43284;47.042;15.498;2022-09-06T05:04:41;10.85;;;6.90;;
57441;SDS011;43284;47.042;15.498;2022-09-06T05:07:08;9.65;;;6.88;;
57441;SDS011;43284;47.042;15.498;2022-09-06T05:09:35;11.57;;;7.13;;
57441;SDS011;43284;47.042;15.498;2022-09-06T05:12:02;14.45;;;7.45;;
57441;SDS011;43284;47.042;15.498;2022-09-06T05:14:30;10.15;;;6.88;;
57441;SDS011;43284;47.042;15.498;2022-09-06T05:16:57;13.35;;;6.80;;
57441;SDS011;43284;47.042;15.498;2022-09-06T05:19:25;10.55;;;6.63;;
57441;SDS011;43284;47.042;15.498;2022-09-06T05:21:52;10.23;;;7.18;;
57441;SDS011;43284;47.042;15.498;2022-09-06T05:24:19;10.30;;;6.47;;
57441;SDS011;43284;47.042;15.498;2022-09-06T05:26:46;9.57;;;6.95;;
57441;SDS011;43284;47.042;15.498;2022-09-06T05:29:13;14.15;;;7.55;;
57441;SDS011;43284;47.042;15.498;2022-09-06T05:31:41;15.75;;;8.32;;
57441;SDS011;43284;47.042;15.498;2022-09-06T05:34:08;11.85;;;7.85;;
57441;SDS011;43284;47.042;15.498;2022-09-06T05:36:38;12.27;;;8.23;;
57441;SDS011;43284;47.042;15.498;2022-09-06T05:39:06;11.93;;;8.57;;
57441;SDS011;43284;47.042;15.498;2022-09-06T05:41:34;13.07;;;9.68;;
57441;SDS011;43284;47.042;15.498;2022-09-06T05:44:01;14.70;;;9.38;;
57441;SDS011;43284;47.042;15.498;2022-09-06T05:46:29;18.10;;;10.15;;
57441;SDS011;43284;47.042;15.498;2022-09-06T05:48:57;14.38;;;8.63;;
57441;SDS011;43284;47.042;15.498;2022-09-06T05:51:32;14.13;;;9.50;;
57441;SDS011;43284;47.042;15.498;2022-09-06T05:54:00;14.75;;;9.25;;
57441;SDS011;43284;47.042;15.498;2022-09-06T05:56:27;14.82;;;10.20;;
57441;SDS011;43284;47.042;15.498;2022-09-06T05:58:54;13.05;;;9.23;;
57441;SDS011;43284;47.042;15.498;2022-09-06T06:01:28;16.25;;;9.88;;
57441;SDS011;43284;47.042;15.498;2022-09-06T06:03:56;15.65;;;9.70;;
57441;SDS011;43284;47.042;15.498;2022-09-06T06:06:26;17.85;;;10.82;;
57441;SDS011;43284;47.042;15.498;2022-09-06T06:08:55;15.80;;;10.60;;
57441;SDS011;43284;47.042;15.498;2022-09-06T06:11:22;14.30;;;9.98;;
57441;SDS011;43284;47.042;15.498;2022-09-06T06:13:50;16.65;;;10.90;;
57441;SDS011;43284;47.042;15.498;2022-09-06T06:16:19;15.80;;;10.68;;
57441;SDS011;43284;47.042;15.498;2022-09-06T06:18:47;16.25;;;11.18;;
57441;SDS011;43284;47.042;15.498;2022-09-06T06:21:15;17.08;;;10.07;;
57441;SDS011;43284;47.042;15.498;2022-09-06T06:23:45;21.23;;;10.68;;
57441;SDS011;43284;47.042;15.498;2022-09-06T06:26:15;14.73;;;9.60;;
57441;SDS011;43284;47.042;15.498;2022-09-06T06:28:43;14.73;;;9.90;;
57441;SDS011;43284;47.042;15.498;2022-09-06T06:31:11;15.50;;;9.77;;
57441;SDS011;43284;47.042;15.498;2022-09-06T06:33:39;15.48;;;9.98;;
57441;SDS011;43284;47.042;15.498;2022-09-06T06:38:41;15.48;;;9.98;;
57441;SDS011;43284;47.042;15.498;2022-09-06T06:41:10;16.70;;;10.55;;
57441;SDS011;43284;47.042;15.498;2022-09-06T06:43:39;16.95;;;11.07;;
57441;SDS011;43284;47.042;15.498;2022-09-06T06:46:11;18.05;;;11.02;;
57441;SDS011;43284;47.042;15.498;2022-09-06T06:48:51;25.75;;;11.68;;
57441;SDS011;43284;47.042;15.498;2022-09-06T06:51:26;14.73;;;10.50;;
57441;SDS011;43284;47.042;15.498;2022-09-06T06:53:56;17.35;;;11.13;;
57441;SDS011;43284;47.042;15.498;2022-09-06T06:56:28;17.42;;;11.20;;
57441;SDS011;43284;47.042;15.498;2022-09-06T06:58:56;17.52;;;10.38;;
57441;SDS011;43284;47.042;15.498;2022-09-06T07:01:26;16.45;;;10.60;;
57441;SDS011;43284;47.042;15.498;2022-09-06T07:03:54;15.85;;;10.57;;
57441;SDS011;43284;47.042;15.498;2022-09-06T07:06:22;16.30;;;10.77;;
57441;SDS011;43284;47.042;15.498;2022-09-06T07:08:50;17.27;;;11.18;;
57441;SDS011;43284;47.042;15.498;2022-09-06T07:11:17;13.85;;;9.82;;
57441;SDS011;43284;47.042;15.498;2022-09-06T07:13:45;16.50;;;10.52;;
57441;SDS011;43284;47.042;15.498;2022-09-06T07:16:17;15.95;;;10.30;;
57441;SDS011;43284;47.042;15.498;2022-09-06T07:21:20;16.15;;;10.30;;
57441;SDS011;43284;47.042;15.498;2022-09-06T07:23:53;13.52;;;9.70;;
57441;SDS011;43284;47.042;15.498;2022-09-06T07:26:21;14.38;;;10.18;;
57441;SDS011;43284;47.042;15.498;2022-09-06T07:28:58;13.73;;;9.82;;
57441;SDS011;43284;47.042;15.498;2022-09-06T07:31:27;13.52;;;10.27;;
57441;SDS011;43284;47.042;15.498;2022-09-06T07:33:55;14.70;;;9.68;;
57441;SDS011;43284;47.042;15.498;2022-09-06T07:36:22;14.23;;;9.80;;
57441;SDS011;43284;47.042;15.498;2022-09-06T07:38:49;15.70;;;10.63;;
57441;SDS011;43284;47.042;15.498;2022-09-06T07:41:17;14.90;;;10.45;;
57441;SDS011;43284;47.042;15.498;2022-09-06T07:43:44;15.88;;;10.40;;
57441;SDS011;43284;47.042;15.498;2022-09-06T07:46:13;14.20;;;9.70;;
57441;SDS011;43284;47.042;15.498;2022-09-06T07:48:43;15.77;;;10.50;;
57441;SDS011;43284;47.042;15.498;2022-09-06T07:51:15;14.13;;;9.57;;
57441;SDS011;43284;47.042;15.498;2022-09-06T07:53:46;17.98;;;9.65;;
57441;SDS011;43284;47.042;15.498;2022-09-06T07:56:24;15.52;;;9.77;;
57441;SDS011;43284;47.042;15.498;2022-09-06T07:58:51;15.90;;;11.23;;
57441;SDS011;43284;47.042;15.498;2022-09-06T08:01:29;15.93;;;10.63;;
57441;SDS011;43284;47.042;15.498;2022-09-06T08:04:04;16.08;;;9.90;;
57441;SDS011;43284;47.042;15.498;2022-09-06T08:06:37;15.73;;;10.15;;
57441;SDS011;43284;47.042;15.498;2022-09-06T08:09:06;14.48;;;10.77;;
57441;SDS011;43284;47.042;15.498;2022-09-06T08:11:35;13.98;;;9.65;;
57441;SDS011;43284;47.042;15.498;2022-09-06T08:14:04;11.98;;;8.63;;
57441;SDS011;43284;47.042;15.498;2022-09-06T08:16:33;14.10;;;9.18;;
57441;SDS011;43284;47.042;15.498;2022-09-06T08:19:05;17.40;;;8.73;;
57441;SDS011;43284;47.042;15.498;2022-09-06T08:21:33;13.35;;;9.65;;
57441;SDS011;43284;47.042;15.498;2022-09-06T08:24:02;10.30;;;8.02;;
57441;SDS011;43284;47.042;15.498;2022-09-06T08:26:33;13.60;;;9.65;;
57441;SDS011;43284;47.042;15.498;2022-09-06T08:29:05;13.55;;;9.38;;
57441;SDS011;43284;47.042;15.498;2022-09-06T08:31:35;12.85;;;10.15;;
57441;SDS011;43284;47.042;15.498;2022-09-06T08:34:04;14.77;;;9.93;;
57441;SDS011;43284;47.042;15.498;2022-09-06T08:36:32;16.10;;;11.98;;
57441;SDS011;43284;47.042;15.498;2022-09-06T08:39:01;14.50;;;10.38;;
57441;SDS011;43284;47.042;15.498;2022-09-06T08:41:32;15.70;;;10.50;;
57441;SDS011;43284;47.042;15.498;2022-09-06T08:44:04;13.90;;;10.05;;
57441;SDS011;43284;47.042;15.498;2022-09-06T08:46:49;12.35;;;9.30;;
57441;SDS011;43284;47.042;15.498;2022-09-06T08:49:22;14.25;;;9.65;;
57441;SDS011;43284;47.042;15.498;2022-09-06T08:52:10;14.18;;;9.48;;
57441;SDS011;43284;47.042;15.498;2022-09-06T09:00:23;13.68;;;8.90;;
57441;SDS011;43284;47.042;15.498;2022-09-06T09:05:50;16.83;;;11.48;;
57441;SDS011;43284;47.042;15.498;2022-09-06T09:11:00;14.82;;;9.73;;
57441;SDS011;43284;47.042;15.498;2022-09-06T09:13:34;12.93;;;9.35;;
57441;SDS011;43284;47.042;15.498;2022-09-06T09:16:17;10.93;;;8.23;;
57441;SDS011;43284;47.042;15.498;2022-09-06T09:18:45;12.52;;;8.20;;
57441;SDS011;43284;47.042;15.498;2022-09-06T09:21:20;13.48;;;8.50;;
57441;SDS011;43284;47.042;15.498;2022-09-06T09:23:53;10.50;;;7.07;;
57441;SDS011;43284;47.042;15.498;2022-09-06T09:26:24;10.35;;;8.27;;
57441;SDS011;43284;47.042;15.498;2022-09-06T09:31:41;10.10;;;7.50;;
57441;SDS011;43284;47.042;15.498;2022-09-06T09:37:24;10.35;;;6.47;;
57441;SDS011;43284;47.042;15.498;2022-09-06T09:39:53;10.68;;;7.18;;
57441;SDS011;43284;47.042;15.498;2022-09-06T09:42:27;11.05;;;7.65;;
57441;SDS011;43284;47.042;15.498;2022-09-06T09:45:02;10.30;;;7.30;;
57441;SDS011;43284;47.042;15.498;2022-09-06T09:47:50;10.70;;;7.00;;
57441;SDS011;43284;47.042;15.498;2022-09-06T09:50:29;8.95;;;6.95;;
57441;SDS011;43284;47.042;15.498;2022-09-06T09:53:18;9.07;;;7.15;;
57441;SDS011;43284;47.042;15.498;2022-09-06T09:55:53;10.70;;;7.05;;
57441;SDS011;43284;47.042;15.498;2022-09-06T09:58:28;8.73;;;6.18;;
57441;SDS011;43284;47.042;15.498;2022-09-06T10:01:16;8.63;;;6.35;;
57441;SDS011;43284;47.042;15.498;2022-09-06T10:03:49;9.07;;;6.28;;
57441;SDS011;43284;47.042;15.498;2022-09-06T10:06:23;8.88;;;7.15;;
57441;SDS011;43284;47.042;15.498;2022-09-06T10:08:52;10.27;;;7.45;;
57441;SDS011;43284;47.042;15.498;2022-09-06T10:14:29;7.38;;;5.25;;
57441;SDS011;43284;47.042;15.498;2022-09-06T10:16:58;8.85;;;6.10;;
57441;SDS011;43284;47.042;15.498;2022-09-06T10:19:35;7.18;;;5.80;;
57441;SDS011;43284;47.042;15.498;2022-09-06T10:22:20;8.98;;;6.10;;
57441;SDS011;43284;47.042;15.498;2022-09-06T10:25:05;7.90;;;6.20;;
57441;SDS011;43284;47.042;15.498;2022-09-06T10:27:42;9.20;;;6.30;;
57441;SDS011;43284;47.042;15.498;2022-09-06T10:30:30;7.35;;;6.00;;
57441;SDS011;43284;47.042;15.498;2022-09-06T10:33:10;8.23;;;6.07;;
57441;SDS011;43284;47.042;15.498;2022-09-06T10:36:01;7.78;;;5.78;;
57441;SDS011;43284;47.042;15.498;2022-09-06T10:44:14;8.18;;;5.63;;
57441;SDS011;43284;47.042;15.498;2022-09-06T10:47:08;6.60;;;5.57;;
57441;SDS011;43284;47.042;15.498;2022-09-06T10:49:45;7.75;;;5.63;;
57441;SDS011;43284;47.042;15.498;2022-09-06T10:52:23;6.82;;;5.63;;
57441;SDS011;43284;47.042;15.498;2022-09-06T10:55:14;6.75;;;5.07;;
57441;SDS011;43284;47.042;15.498;2022-09-06T10:57:52;6.72;;;5.32;;
57441;SDS011;43284;47.042;15.498;2022-09-06T11:00:34;6.53;;;5.72;;
57441;SDS011;43284;47.042;15.498;2022-09-06T11:08:47;7.10;;;5.47;;
57441;SDS011;43284;47.042;15.498;2022-09-06T11:11:34;5.43;;;4.80;;
57441;SDS011;43284;47.042;15.498;2022-09-06T11:14:26;5.82;;;4.78;;
57441;SDS011;43284;47.042;15.498;2022-09-06T11:16:59;5.72;;;4.85;;
57441;SDS011;43284;47.042;15.498;2022-09-06T11:19:40;7.55;;;5.32;;
57441;SDS011;43284;47.042;15.498;2022-09-06T11:28:12;6.00;;;5.18;;
57441;SDS011;43284;47.042;15.498;2022-09-06T11:30:52;4.93;;;4.30;;
57441;SDS011;43284;47.042;15.498;2022-09-06T11:33:27;6.15;;;4.57;;
57441;SDS011;43284;47.042;15.498;2022-09-06T11:39:01;5.90;;;4.55;;
57441;SDS011;43284;47.042;15.498;2022-09-06T11:41:37;6.03;;;4.78;;
57441;SDS011;43284;47.042;15.498;2022-09-06T11:44:08;7.22;;;5.07;;
57441;SDS011;43284;47.042;15.498;2022-09-06T11:49:08;6.80;;;4.82;;
57441;SDS011;43284;47.042;15.498;2022-09-06T11:51:43;6.03;;;4.93;;
57441;SDS011;43284;47.042;15.498;2022-09-06T11:54:18;6.45;;;5.18;;
57441;SDS011;43284;47.042;15.498;2022-09-06T11:57:09;5.95;;;4.55;;
57441;SDS011;43284;47.042;15.498;2022-09-06T12:02:30;6.80;;;4.60;;
57441;SDS011;43284;47.042;15.498;2022-09-06T12:05:12;5.32;;;4.40;;
57441;SDS011;43284;47.042;15.498;2022-09-06T12:16:01;5.00;;;4.10;;
57441;SDS011;43284;47.042;15.498;2022-09-06T12:24:00;5.60;;;4.18;;
57441;SDS011;43284;47.042;15.498;2022-09-06T12:26:50;4.93;;;4.03;;
57441;SDS011;43284;47.042;15.498;2022-09-06T12:29:36;5.28;;;4.50;;
57441;SDS011;43284;47.042;15.498;2022-09-06T12:32:04;5.20;;;4.47;;
57441;SDS011;43284;47.042;15.498;2022-09-06T12:34:32;5.95;;;4.85;;
57441;SDS011;43284;47.042;15.498;2022-09-06T12:37:03;7.10;;;4.75;;
57441;SDS011;43284;47.042;15.498;2022-09-06T12:39:33;6.20;;;4.72;;
57441;SDS011;43284;47.042;15.498;2022-09-06T12:42:01;7.30;;;4.47;;
57441;SDS011;43284;47.042;15.498;2022-09-06T12:44:35;4.70;;;3.53;;
57441;SDS011;43284;47.042;15.498;2022-09-06T12:47:20;4.22;;;3.83;;
57441;SDS011;43284;47.042;15.498;2022-09-06T12:52:51;4.82;;;4.20;;
57441;SDS011;43284;47.042;15.498;2022-09-06T12:55:35;4.28;;;3.88;;
57441;SDS011;43284;47.042;15.498;2022-09-06T12:58:08;5.65;;;4.22;;
57441;SDS011;43284;47.042;15.498;2022-09-06T13:05:50;4.85;;;4.35;;
57441;SDS011;43284;47.042;15.498;2022-09-06T13:08:25;4.68;;;3.72;;
57441;SDS011;43284;47.042;15.498;2022-09-06T13:11:02;4.10;;;3.45;;
57441;SDS011;43284;47.042;15.498;2022-09-06T13:13:43;4.57;;;3.80;;
57441;SDS011;43284;47.042;15.498;2022-09-06T13:16:24;6.22;;;4.15;;
57441;SDS011;43284;47.042;15.498;2022-09-06T13:18:53;4.70;;;3.90;;
57441;SDS011;43284;47.042;15.498;2022-09-06T13:21:26;4.05;;;3.65;;
57441;SDS011;43284;47.042;15.498;2022-09-06T13:23:58;5.65;;;3.97;;
57441;SDS011;43284;47.042;15.498;2022-09-06T13:26:35;4.90;;;4.07;;
57441;SDS011;43284;47.042;15.498;2022-09-06T13:29:11;5.13;;;3.72;;
57441;SDS011;43284;47.042;15.498;2022-09-06T13:31:51;5.18;;;3.80;;
57441;SDS011;43284;47.042;15.498;2022-09-06T13:34:31;5.28;;;4.03;;
57441;SDS011;43284;47.042;15.498;2022-09-06T13:37:03;5.15;;;4.35;;
57441;SDS011;43284;47.042;15.498;2022-09-06T13:39:41;5.05;;;3.90;;
57441;SDS011;43284;47.042;15.498;2022-09-06T13:42:10;5.30;;;3.55;;
57441;SDS011;43284;47.042;15.498;2022-09-06T13:44:58;4.03;;;3.55;;
57441;SDS011;43284;47.042;15.498;2022-09-06T13:47:45;4.68;;;4.00;;
57441;SDS011;43284;47.042;15.498;2022-09-06T13:50:13;4.85;;;3.90;;
57441;SDS011;43284;47.042;15.498;2022-09-06T13:52:40;6.80;;;4.32;;
57441;SDS011;43284;47.042;15.498;2022-09-06T13:55:09;4.45;;;3.80;;
57441;SDS011;43284;47.042;15.498;2022-09-06T13:57:42;3.67;;;3.30;;
57441;SDS011;43284;47.042;15.498;2022-09-06T14:00:09;5.57;;;3.78;;
57441;SDS011;43284;47.042;15.498;2022-09-06T14:02:38;3.38;;;3.08;;
57441;SDS011;43284;47.042;15.498;2022-09-06T14:05:07;4.75;;;4.15;;
57441;SDS011;43284;47.042;15.498;2022-09-06T14:07:35;4.13;;;3.45;;
57441;SDS011;43284;47.042;15.498;2022-09-06T14:10:04;4.72;;;4.20;;
57441;SDS011;43284;47.042;15.498;2022-09-06T14:12:33;4.55;;;3.90;;
57441;SDS011;43284;47.042;15.498;2022-09-06T14:15:00;5.30;;;4.13;;
57441;SDS011;43284;47.042;15.498;2022-09-06T14:17:38;4.82;;;3.92;;
57441;SDS011;43284;47.042;15.498;2022-09-06T14:20:05;7.55;;;4.38;;
57441;SDS011;43284;47.042;15.498;2022-09-06T14:22:34;5.15;;;4.05;;
57441;SDS011;43284;47.042;15.498;2022-09-06T14:25:01;5.40;;;4.30;;
57441;SDS011;43284;47.042;15.498;2022-09-06T14:27:29;4.18;;;3.78;;
57441;SDS011;43284;47.042;15.498;2022-09-06T14:29:57;3.95;;;3.33;;
57441;SDS011;43284;47.042;15.498;2022-09-06T14:32:26;7.90;;;4.38;;
57441;SDS011;43284;47.042;15.498;2022-09-06T14:34:55;3.92;;;3.20;;
57441;SDS011;43284;47.042;15.498;2022-09-06T14:37:23;6.32;;;5.13;;
57441;SDS011;43284;47.042;15.498;2022-09-06T14:39:50;5.20;;;4.07;;
57441;SDS011;43284;47.042;15.498;2022-09-06T14:42:18;4.30;;;3.88;;
57441;SDS011;43284;47.042;15.498;2022-09-06T14:44:50;5.32;;;3.90;;
57441;SDS011;43284;47.042;15.498;2022-09-06T14:47:18;4.35;;;3.67;;
57441;SDS011;43284;47.042;15.498;2022-09-06T14:49:45;4.95;;;3.85;;
57441;SDS011;43284;47.042;15.498;2022-09-06T14:52:13;5.30;;;4.10;;
57441;SDS011;43284;47.042;15.498;2022-09-06T14:54:40;3.88;;;3.25;;
57441;SDS011;43284;47.042;15.498;2022-09-06T14:57:08;4.22;;;3.63;;
57441;SDS011;43284;47.042;15.498;2022-09-06T14:59:35;4.05;;;3.42;;
57441;SDS011;43284;47.042;15.498;2022-09-06T15:02:03;5.85;;;3.63;;
57441;SDS011;43284;47.042;15.498;2022-09-06T15:04:31;4.40;;;3.72;;
57441;SDS011;43284;47.042;15.498;2022-09-06T15:06:58;6.55;;;4.05;;
57441;SDS011;43284;47.042;15.498;2022-09-06T15:09:25;4.32;;;3.00;;
57441;SDS011;43284;47.042;15.498;2022-09-06T15:11:53;5.72;;;3.80;;
57441;SDS011;43284;47.042;15.498;2022-09-06T15:14:24;4.40;;;3.55;;
57441;SDS011;43284;47.042;15.498;2022-09-06T15:16:54;5.97;;;3.50;;
57441;SDS011;43284;47.042;15.498;2022-09-06T15:19:24;5.25;;;3.85;;
57441;SDS011;43284;47.042;15.498;2022-09-06T15:21:53;4.93;;;4.10;;
57441;SDS011;43284;47.042;15.498;2022-09-06T15:24:22;5.47;;;4.22;;
57441;SDS011;43284;47.042;15.498;2022-09-06T15:26:50;4.15;;;3.58;;
57441;SDS011;43284;47.042;15.498;2022-09-06T15:29:18;4.90;;;3.78;;
57441;SDS011;43284;47.042;15.498;2022-09-06T15:31:48;4.00;;;3.42;;
57441;SDS011;43284;47.042;15.498;2022-09-06T15:34:20;4.50;;;3.58;;
57441;SDS011;43284;47.042;15.498;2022-09-06T15:36:49;4.20;;;3.58;;
57441;SDS011;43284;47.042;15.498;2022-09-06T15:39:18;4.97;;;4.05;;
57441;SDS011;43284;47.042;15.498;2022-09-06T15:41:45;4.28;;;3.53;;
57441;SDS011;43284;47.042;15.498;2022-09-06T15:44:16;6.47;;;3.90;;
57441;SDS011;43284;47.042;15.498;2022-09-06T15:46:47;4.00;;;3.55;;
57441;SDS011;43284;47.042;15.498;2022-09-06T15:49:17;5.80;;;4.22;;
57441;SDS011;43284;47.042;15.498;2022-09-06T15:51:51;3.85;;;3.45;;
57441;SDS011;43284;47.042;15.498;2022-09-06T15:54:19;5.00;;;4.20;;
57441;SDS011;43284;47.042;15.498;2022-09-06T15:57:05;5.05;;;3.67;;
57441;SDS011;43284;47.042;15.498;2022-09-06T15:59:33;5.22;;;4.28;;
57441;SDS011;43284;47.042;15.498;2022-09-06T16:02:04;4.30;;;3.85;;
57441;SDS011;43284;47.042;15.498;2022-09-06T16:04:33;4.28;;;3.70;;
57441;SDS011;43284;47.042;15.498;2022-09-06T16:07:00;4.15;;;3.40;;
57441;SDS011;43284;47.042;15.498;2022-09-06T16:09:28;5.30;;;3.60;;
57441;SDS011;43284;47.042;15.498;2022-09-06T16:11:56;4.90;;;4.35;;
57441;SDS011;43284;47.042;15.498;2022-09-06T16:14:25;4.75;;;3.88;;
57441;SDS011;43284;47.042;15.498;2022-09-06T16:16:53;4.85;;;3.80;;
57441;SDS011;43284;47.042;15.498;2022-09-06T16:19:23;3.92;;;3.53;;
57441;SDS011;43284;47.042;15.498;2022-09-06T16:21:57;5.13;;;4.25;;
57441;SDS011;43284;47.042;15.498;2022-09-06T16:24:26;5.03;;;4.25;;
57441;SDS011;43284;47.042;15.498;2022-09-06T16:26:54;3.83;;;3.45;;
57441;SDS011;43284;47.042;15.498;2022-09-06T16:29:21;5.15;;;4.18;;
57441;SDS011;43284;47.042;15.498;2022-09-06T16:31:49;4.78;;;3.65;;
57441;SDS011;43284;47.042;15.498;2022-09-06T16:34:24;4.47;;;4.03;;
57441;SDS011;43284;47.042;15.498;2022-09-06T16:36:52;5.03;;;3.75;;